createdAt,value
2024-05-09T06:56:46.790Z,1021.70
2024-05-09T06:57:47.877Z,1021.66
2024-05-09T06:58:48.012Z,1021.68
2024-05-09T06:59:48.035Z,1021.66
2024-05-09T07:00:48.190Z,1021.66
2024-05-09T07:01:48.248Z,1021.62
2024-05-09T07:02:48.459Z,1021.67
2024-05-09T07:03:48.416Z,1021.63
2024-05-09T07:04:48.572Z,1021.58
2024-05-09T07:05:49.624Z,1021.61
2024-05-09T07:06:48.604Z,1021.62
2024-05-09T07:07:49.102Z,1021.57
2024-05-09T07:08:50.234Z,1021.58
2024-05-09T07:09:48.914Z,1021.64
2024-05-09T07:10:49.095Z,1021.60
2024-05-09T07:11:49.225Z,1021.60
2024-05-09T07:12:49.195Z,1021.60
2024-05-09T07:13:49.263Z,1021.59
2024-05-09T07:14:49.404Z,1021.60
2024-05-09T07:15:49.404Z,1021.58
2024-05-09T07:16:49.585Z,1021.56
2024-05-09T07:17:49.720Z,1021.62
2024-05-09T07:18:50.093Z,1021.62
2024-05-09T07:19:49.991Z,1021.66
2024-05-09T07:20:50.684Z,1021.61
2024-05-09T07:21:49.920Z,1021.61
2024-05-09T07:22:50.020Z,1021.67
2024-05-09T07:23:50.145Z,1021.63
2024-05-09T07:24:50.170Z,1021.64
2024-05-09T07:25:50.267Z,1021.59
2024-05-09T07:26:51.193Z,1021.62
2024-05-09T07:27:50.356Z,1021.60
2024-05-09T07:28:50.475Z,1021.62
2024-05-09T07:29:50.548Z,1021.60
2024-05-09T07:30:50.656Z,1021.54
2024-05-09T07:31:50.770Z,1021.54
2024-05-09T07:32:51.056Z,1021.56
2024-05-09T07:33:51.073Z,1021.53
2024-05-09T07:34:51.031Z,1021.56
2024-05-09T07:35:51.098Z,1021.49
2024-05-09T07:36:51.156Z,1021.49
2024-05-09T07:37:51.296Z,1021.47
2024-05-09T07:38:51.351Z,1021.45
2024-05-09T07:39:51.380Z,1021.53
2024-05-09T07:40:51.492Z,1021.50
2024-05-09T07:41:51.534Z,1021.48
2024-05-09T07:42:51.603Z,1021.48
2024-05-09T07:43:51.773Z,1021.49
2024-05-09T07:44:51.753Z,1021.52
2024-05-09T07:45:54.496Z,1021.49
2024-05-09T07:49:16.441Z,1021.47
2024-05-09T07:53:07.565Z,1021.45
2024-05-09T07:53:44.735Z,1021.45
2024-05-09T07:53:55.958Z,1021.40
2024-05-09T07:54:51.322Z,1021.40
2024-05-09T07:55:51.358Z,1021.46
2024-05-09T07:56:51.539Z,1021.45
2024-05-09T07:57:51.790Z,1021.41
2024-05-09T07:58:51.917Z,1021.43
2024-05-09T07:59:51.530Z,1021.46
2024-05-09T08:00:51.698Z,1021.47
2024-05-09T08:01:51.832Z,1021.48
2024-05-09T08:02:51.809Z,1021.44
2024-05-09T08:03:52.006Z,1021.39
2024-05-09T08:04:52.019Z,1021.38
2024-05-09T08:05:52.242Z,1021.43
2024-05-09T08:06:52.128Z,1021.44
2024-05-09T08:07:52.180Z,1021.43
2024-05-09T08:08:52.256Z,1021.46
2024-05-09T08:09:52.446Z,1021.45
2024-05-09T08:10:52.553Z,1021.45
2024-05-09T08:11:52.676Z,1021.46
2024-05-09T08:12:52.667Z,1021.44
2024-05-09T08:13:52.671Z,1021.48
2024-05-09T08:14:52.766Z,1021.43
2024-05-09T08:15:52.989Z,1021.46
2024-05-09T08:16:52.944Z,1021.44
2024-05-09T08:17:53.014Z,1021.46
2024-05-09T08:18:53.143Z,1021.38
2024-05-09T08:19:53.206Z,1021.34
2024-05-09T08:20:53.240Z,1021.36
2024-05-09T08:21:53.351Z,1021.34
2024-05-09T08:22:53.394Z,1021.31
2024-05-09T08:23:53.448Z,1021.37
2024-05-09T08:24:53.571Z,1021.38
2024-05-09T08:25:53.647Z,1021.38
2024-05-09T08:26:53.731Z,1021.37
2024-05-09T08:27:53.838Z,1021.38
2024-05-09T08:28:53.922Z,1021.30
2024-05-09T08:29:54.041Z,1021.25
2024-05-09T08:30:54.237Z,1021.21
2024-05-09T08:31:54.191Z,1021.20
2024-05-09T08:32:54.235Z,1021.28
2024-05-09T08:33:54.474Z,1021.27
2024-05-09T08:34:54.448Z,1021.22
2024-05-09T08:35:54.430Z,1021.23
2024-05-09T08:36:55.173Z,1021.23
2024-05-09T08:37:54.650Z,1021.32
2024-05-09T08:38:54.739Z,1021.26
2024-05-09T08:39:54.868Z,1021.32
2024-05-09T08:40:54.821Z,1021.30
2024-05-09T08:41:54.920Z,1021.33
2024-05-09T08:42:55.025Z,1021.28
2024-05-09T08:43:55.601Z,1021.27
2024-05-09T08:44:55.105Z,1021.29
2024-05-09T08:45:55.234Z,1021.24
2024-05-09T08:46:55.386Z,1021.27
2024-05-09T08:47:55.450Z,1021.26
2024-05-09T08:48:55.646Z,1021.27
2024-05-09T08:49:55.569Z,1021.27
2024-05-09T08:50:55.646Z,1021.29
2024-05-09T08:51:55.667Z,1021.28
2024-05-09T08:52:55.716Z,1021.29
2024-05-09T08:53:55.797Z,1021.25
2024-05-09T08:54:55.912Z,1021.24
2024-05-09T08:55:55.945Z,1021.24
2024-05-09T08:56:56.025Z,1021.24
2024-05-09T08:57:56.140Z,1021.21
2024-05-09T08:58:56.161Z,1021.16
2024-05-09T08:59:56.229Z,1021.18
2024-05-09T09:00:56.334Z,1021.19
2024-05-09T09:01:56.507Z,1021.25
2024-05-09T09:02:56.533Z,1021.22
2024-05-09T09:03:57.232Z,1021.26
2024-05-09T09:04:56.709Z,1021.27
2024-05-09T09:05:56.687Z,1021.23
2024-05-09T09:06:58.296Z,1021.25
2024-05-09T09:07:56.823Z,1021.20
2024-05-09T09:08:56.881Z,1021.22
2024-05-09T09:09:57.135Z,1021.18
2024-05-09T09:10:57.117Z,1021.16
2024-05-09T09:11:57.191Z,1021.13
2024-05-09T09:12:57.262Z,1021.21
2024-05-09T09:13:57.300Z,1021.18
2024-05-09T09:14:57.381Z,1021.21
2024-05-09T09:15:57.896Z,1021.14
2024-05-09T09:16:57.581Z,1021.14
2024-05-09T09:17:57.872Z,1021.13
2024-05-09T09:18:58.896Z,1021.12
2024-05-09T09:19:57.825Z,1021.10
2024-05-09T09:20:57.889Z,1021.07
2024-05-09T09:21:58.040Z,1021.03
2024-05-09T09:22:58.043Z,1021.07
2024-05-09T09:23:58.732Z,1021.14
2024-05-09T09:24:58.243Z,1021.18
2024-05-09T09:25:58.334Z,1021.25
2024-05-09T09:26:58.412Z,1021.22
2024-05-09T09:27:58.732Z,1021.27
2024-05-09T09:28:58.601Z,1021.22
2024-05-09T09:29:58.681Z,1021.26
2024-05-09T09:30:58.772Z,1021.29
2024-05-09T09:31:58.852Z,1021.32
2024-05-09T09:32:59.083Z,1021.21
2024-05-09T09:33:59.128Z,1021.21
2024-05-09T09:34:59.172Z,1021.22
2024-05-09T09:35:59.133Z,1021.25
2024-05-09T09:36:59.286Z,1021.23
2024-05-09T09:37:59.320Z,1021.19
2024-05-09T09:38:59.399Z,1021.26
2024-05-09T09:39:59.572Z,1021.20
2024-05-09T09:40:59.644Z,1021.22
2024-05-09T09:41:59.700Z,1021.19
2024-05-09T09:42:59.741Z,1021.17
2024-05-09T09:43:59.834Z,1021.14
2024-05-09T09:45:04.888Z,1021.17
2024-05-09T09:46:00.364Z,1021.09
2024-05-09T09:47:00.098Z,1021.09
2024-05-09T09:48:00.248Z,1021.09
2024-05-09T09:49:00.331Z,1020.99
2024-05-09T09:50:00.322Z,1021.00
2024-05-09T09:51:00.397Z,1021.00
2024-05-09T09:52:00.498Z,1020.96
2024-05-09T09:53:00.547Z,1020.88
2024-05-09T09:54:00.665Z,1020.86
2024-05-09T09:55:00.858Z,1020.78
2024-05-09T09:56:00.869Z,1020.78
2024-05-09T09:57:00.910Z,1020.74
2024-05-09T09:58:01.115Z,1020.72
2024-05-09T09:59:01.092Z,1020.69
2024-05-09T10:00:01.166Z,1020.65
2024-05-09T10:01:01.357Z,1020.63
2024-05-09T10:02:01.489Z,1020.62
2024-05-09T10:03:01.972Z,1020.56
2024-05-09T10:04:01.686Z,1020.57
2024-05-09T10:05:01.827Z,1020.54
2024-05-09T10:06:01.720Z,1020.45
2024-05-09T10:07:01.871Z,1020.43
2024-05-09T10:08:01.851Z,1020.43
2024-05-09T10:09:01.943Z,1020.51
2024-05-09T10:10:02.113Z,1020.49
2024-05-09T10:11:02.289Z,1020.50
2024-05-09T10:12:02.296Z,1020.51
2024-05-09T10:13:02.436Z,1020.51
2024-05-09T10:14:02.384Z,1020.50
2024-05-09T10:15:02.467Z,1020.49
2024-05-09T10:16:02.573Z,1020.47
2024-05-09T10:17:02.687Z,1020.36
2024-05-09T10:18:03.019Z,1020.35
2024-05-09T10:19:02.994Z,1020.29
2024-05-09T10:20:04.032Z,1020.30
2024-05-09T10:21:02.962Z,1020.25
2024-05-09T10:22:03.158Z,1020.21
2024-05-09T10:23:03.139Z,1020.16
2024-05-09T10:24:03.289Z,1020.12
2024-05-09T10:25:05.171Z,1020.09
2024-05-09T10:26:03.766Z,1020.13
2024-05-09T10:27:03.490Z,1020.17
2024-05-09T10:28:03.603Z,1020.10
2024-05-09T10:29:03.721Z,1020.11
2024-05-09T10:30:06.918Z,1020.13
2024-05-09T10:31:03.845Z,1020.11
2024-05-09T10:32:03.900Z,1020.10
2024-05-09T10:33:04.065Z,1020.08
2024-05-09T10:34:04.384Z,1020.11
2024-05-09T10:35:04.240Z,1020.07
2024-05-09T10:36:04.229Z,1020.02
2024-05-09T10:37:05.067Z,1020.00
2024-05-09T10:38:04.439Z,1019.97
2024-05-09T10:39:04.495Z,1019.94
2024-05-09T10:40:09.292Z,1019.98
2024-05-09T10:41:04.646Z,1020.03
2024-05-09T10:42:04.721Z,1019.99
2024-05-09T10:43:06.460Z,1020.00
2024-05-09T10:44:04.910Z,1020.03
2024-05-09T10:45:05.033Z,1019.91
2024-05-09T10:46:05.265Z,1019.92
2024-05-09T10:47:05.187Z,1019.91
2024-05-09T10:48:05.351Z,1019.94
2024-05-09T10:49:07.818Z,1019.99
2024-05-09T10:50:07.993Z,1019.97
2024-05-09T10:51:05.492Z,1019.96
2024-05-09T10:52:05.601Z,1019.93
2024-05-09T10:53:05.657Z,1019.85
2024-05-09T10:54:05.752Z,1019.82
2024-05-09T10:55:06.090Z,1019.81
2024-05-09T10:56:06.019Z,1019.81
2024-05-09T10:57:06.002Z,1019.74
2024-05-09T10:58:06.089Z,1019.64
2024-05-09T10:59:06.179Z,1019.65
2024-05-09T11:00:10.088Z,1019.58
2024-05-09T11:01:07.356Z,1019.63
2024-05-09T11:02:06.553Z,1019.57
2024-05-09T11:03:08.454Z,1019.55
2024-05-09T11:04:06.779Z,1019.52
2024-05-09T11:05:06.842Z,1019.49
2024-05-09T11:06:07.219Z,1019.45
2024-05-09T11:07:06.934Z,1019.49
2024-05-09T11:08:06.952Z,1019.49
2024-05-09T11:09:07.060Z,1019.45
2024-05-09T11:10:09.854Z,1019.52
2024-05-09T11:11:08.485Z,1019.56
2024-05-09T11:12:07.441Z,1019.57
2024-05-09T11:13:07.457Z,1019.56
2024-05-09T11:14:07.450Z,1019.56
2024-05-09T11:15:07.488Z,1019.56
2024-05-09T11:16:07.760Z,1019.48
2024-05-09T11:17:07.730Z,1019.51
2024-05-09T11:18:07.953Z,1019.46
2024-05-09T11:19:07.937Z,1019.46
2024-05-09T11:20:13.718Z,1019.41
2024-05-09T11:21:08.016Z,1019.41
2024-05-09T11:22:08.170Z,1019.43
2024-05-09T11:23:08.163Z,1019.40
2024-05-09T11:24:11.175Z,1019.42
2024-05-09T11:25:08.403Z,1019.42
2024-05-09T11:26:08.440Z,1019.38
2024-05-09T11:27:08.526Z,1019.44
2024-05-09T11:28:08.588Z,1019.43
2024-05-09T11:29:08.660Z,1019.37
2024-05-09T11:30:14.344Z,1019.40
2024-05-09T11:31:09.668Z,1019.39
2024-05-09T11:32:09.047Z,1019.24
2024-05-09T11:33:09.084Z,1019.68
2024-05-09T11:34:09.106Z,1019.87
2024-05-09T11:35:09.172Z,1019.98
2024-05-09T11:36:09.276Z,1020.06
2024-05-09T11:37:09.405Z,1020.14
2024-05-09T11:38:09.424Z,1020.20
2024-05-09T11:39:09.511Z,1020.27
2024-05-09T11:40:13.867Z,1020.32
2024-05-09T11:41:09.668Z,1020.39
2024-05-09T11:42:09.771Z,1020.26
2024-05-09T11:43:09.829Z,1020.13
2024-05-09T11:44:09.915Z,1020.09
2024-05-09T11:45:09.996Z,1019.85
2024-05-09T11:46:10.153Z,1019.93
2024-05-09T11:47:10.236Z,1020.02
2024-05-09T11:48:10.377Z,1020.05
2024-05-09T11:49:10.607Z,1020.17
2024-05-09T11:50:16.314Z,1020.26
2024-05-09T11:51:10.543Z,1020.26
2024-05-09T11:52:10.693Z,1020.31
2024-05-09T11:53:10.692Z,1020.36
2024-05-09T11:54:10.758Z,1020.39
2024-05-09T11:55:11.522Z,1019.61
2024-05-09T11:56:10.939Z,1019.62
2024-05-09T11:57:10.982Z,1019.59
2024-05-09T11:58:11.190Z,1019.56
2024-05-09T11:59:11.154Z,1019.79
2024-05-09T12:00:15.024Z,1019.80
2024-05-09T12:01:11.415Z,1019.83
2024-05-09T12:02:11.824Z,1019.81
2024-05-09T12:03:11.553Z,1019.75
2024-05-09T12:04:12.256Z,1019.83
2024-05-09T12:05:11.750Z,1019.77
2024-05-09T12:06:11.735Z,1019.75
2024-05-09T12:07:12.996Z,1019.72
2024-05-09T12:08:11.929Z,1019.73
2024-05-09T12:09:12.020Z,1019.64
2024-05-09T12:10:16.801Z,1019.65
2024-05-09T12:11:12.326Z,1019.60
2024-05-09T12:12:12.230Z,1019.55
2024-05-09T12:13:12.376Z,1019.59
2024-05-09T12:14:12.410Z,1019.57
2024-05-09T12:15:12.493Z,1019.59
2024-05-09T12:16:12.728Z,1019.62
2024-05-09T12:17:12.733Z,1019.59
2024-05-09T12:18:12.763Z,1019.48
2024-05-09T12:19:12.929Z,1019.50
2024-05-09T12:20:21.108Z,1019.47
2024-05-09T12:21:13.071Z,1019.45
2024-05-09T12:22:13.238Z,1019.37
2024-05-09T12:23:13.234Z,1019.34
2024-05-09T12:24:16.877Z,1019.28
2024-05-09T12:25:13.495Z,1019.24
2024-05-09T12:26:13.513Z,1019.23
2024-05-09T12:27:13.586Z,1019.22
2024-05-09T12:28:13.680Z,1019.27
2024-05-09T12:29:13.729Z,1019.28
2024-05-09T12:30:20.797Z,1019.26
2024-05-09T12:31:13.982Z,1019.25
2024-05-09T12:32:13.995Z,1019.26
2024-05-09T12:33:14.452Z,1019.22
2024-05-09T12:34:14.382Z,1019.18
2024-05-09T12:35:14.245Z,1019.20
2024-05-09T12:36:14.351Z,1019.15
2024-05-09T12:37:15.299Z,1019.10
2024-05-09T12:38:14.779Z,1019.20
2024-05-09T12:39:14.656Z,1019.26
2024-05-09T12:40:22.923Z,1019.37
2024-05-09T12:41:14.811Z,1019.54
2024-05-09T12:42:26.343Z,1019.59
2024-05-09T12:43:14.993Z,1019.63
2024-05-09T12:44:15.016Z,1019.67
2024-05-09T12:45:15.127Z,1019.69
2024-05-09T12:46:15.245Z,1019.71
2024-05-09T12:47:15.318Z,1019.76
2024-05-09T12:48:15.454Z,1019.82
2024-05-09T12:49:17.328Z,1019.83
2024-05-09T12:50:22.425Z,1019.06
2024-05-09T12:51:15.609Z,1019.17
2024-05-09T12:52:15.777Z,1019.14
2024-05-09T12:53:15.776Z,1019.19
2024-05-09T12:54:15.832Z,1019.13
2024-05-09T12:55:16.031Z,1019.07
2024-05-09T12:56:15.981Z,1019.07
2024-05-09T12:57:16.045Z,1019.10
2024-05-09T12:58:16.470Z,1019.07
2024-05-09T12:59:16.220Z,1019.05
2024-05-09T13:00:23.768Z,1019.06
2024-05-09T13:01:16.471Z,1019.04
2024-05-09T13:02:16.862Z,1019.03
2024-05-09T13:03:16.744Z,1019.05
2024-05-09T13:04:16.837Z,1019.05
2024-05-09T13:05:16.922Z,1019.01
2024-05-09T13:06:16.764Z,1019.06
2024-05-09T13:07:16.962Z,1019.04
2024-05-09T13:08:17.523Z,1019.07
2024-05-09T13:09:17.063Z,1019.19
2024-05-09T13:10:25.525Z,1019.13
2024-05-09T13:11:17.253Z,1019.16
2024-05-09T13:12:17.245Z,1018.91
2024-05-09T13:13:17.539Z,1019.19
2024-05-09T13:14:17.828Z,1019.18
2024-05-09T13:15:17.547Z,1019.14
2024-05-09T13:16:17.798Z,1019.20
2024-05-09T13:17:17.695Z,1019.14
2024-05-09T13:18:17.877Z,1019.11
2024-05-09T13:19:17.901Z,1019.16
2024-05-09T13:20:26.111Z,1019.15
2024-05-09T13:21:18.101Z,1019.15
2024-05-09T13:22:18.123Z,1019.04
2024-05-09T13:23:18.168Z,1019.07
2024-05-09T13:24:18.270Z,1019.07
2024-05-09T13:25:18.401Z,1019.00
2024-05-09T13:26:18.482Z,1019.03
2024-05-09T13:27:18.552Z,1019.03
2024-05-09T13:28:18.808Z,1019.00
2024-05-09T13:29:18.734Z,1019.00
2024-05-09T13:30:28.661Z,1019.02
2024-05-09T13:31:18.889Z,1018.93
2024-05-09T13:32:18.988Z,1018.94
2024-05-09T13:33:19.173Z,1018.73
2024-05-09T13:34:19.206Z,1018.64
2024-05-09T13:35:19.238Z,1018.62
2024-05-09T13:36:19.289Z,1018.66
2024-05-09T13:37:19.392Z,1018.73
2024-05-09T13:38:19.823Z,1018.68
2024-05-09T13:39:19.524Z,1018.66
2024-05-09T13:40:27.268Z,1018.67
2024-05-09T13:41:19.703Z,1018.64
2024-05-09T13:42:19.773Z,1018.67
2024-05-09T13:43:19.920Z,1018.64
2024-05-09T13:44:19.941Z,1018.62
2024-05-09T13:45:20.020Z,1018.60
2024-05-09T13:46:20.370Z,1018.58
2024-05-09T13:47:20.317Z,1018.60
2024-05-09T13:48:20.417Z,1018.53
2024-05-09T13:49:20.456Z,1018.58
2024-05-09T13:50:28.231Z,1018.56
2024-05-09T13:51:20.499Z,1018.58
2024-05-09T13:52:20.651Z,1018.54
2024-05-09T13:53:20.653Z,1018.54
2024-05-09T13:54:22.528Z,1018.60
2024-05-09T13:55:20.854Z,1018.60
2024-05-09T13:56:20.882Z,1018.58
2024-05-09T13:57:21.006Z,1018.59
2024-05-09T13:58:21.225Z,1018.55
2024-05-09T13:59:21.117Z,1018.54
2024-05-09T14:01:21.413Z,1018.58
2024-05-09T14:02:22.166Z,1018.58
2024-05-09T14:03:21.702Z,1018.53
2024-05-09T14:04:21.573Z,1018.58
2024-05-09T14:05:21.713Z,1018.61
2024-05-09T14:06:21.664Z,1018.53
2024-05-09T14:07:21.774Z,1018.54
2024-05-09T14:08:22.576Z,1018.52
2024-05-09T14:09:21.905Z,1018.50
2024-05-09T14:10:28.493Z,1018.70
2024-05-09T14:11:22.149Z,1018.61
2024-05-09T14:12:22.148Z,1018.57
2024-05-09T14:13:22.458Z,1018.36
2024-05-09T14:14:22.375Z,1018.45
2024-05-09T14:15:22.386Z,1018.43
2024-05-09T14:16:22.523Z,1018.42
2024-05-09T14:17:22.621Z,1018.37
2024-05-09T14:18:22.611Z,1018.41
2024-05-09T14:19:22.706Z,1018.34
2024-05-09T14:20:30.755Z,1018.34
2024-05-09T14:21:22.852Z,1018.38
2024-05-09T14:22:22.961Z,1018.36
2024-05-09T14:23:23.026Z,1018.32
2024-05-09T14:24:23.077Z,1018.34
2024-05-09T14:25:23.253Z,1018.37
2024-05-09T14:26:23.268Z,1018.36
2024-05-09T14:27:23.346Z,1018.35
2024-05-09T14:28:23.702Z,1018.38
2024-05-09T14:29:23.567Z,1018.35
2024-05-09T14:30:30.978Z,1018.36
2024-05-09T14:31:24.444Z,1018.47
2024-05-09T14:32:23.860Z,1018.42
2024-05-09T14:33:23.921Z,1018.36
2024-05-09T14:34:24.074Z,1018.30
2024-05-09T14:35:23.983Z,1018.36
2024-05-09T14:36:24.046Z,1018.33
2024-05-09T14:37:24.212Z,1018.27
2024-05-09T14:38:24.768Z,1018.23
2024-05-09T14:39:24.333Z,1018.23
2024-05-09T14:41:24.464Z,1018.18
2024-05-09T14:42:24.543Z,1018.22
2024-05-09T14:43:24.832Z,1018.19
2024-05-09T14:44:24.719Z,1018.10
2024-05-09T14:45:24.803Z,1018.18
2024-05-09T14:46:25.005Z,1018.11
2024-05-09T14:47:25.036Z,1018.17
2024-05-09T14:48:25.055Z,1018.14
2024-05-09T14:49:25.167Z,1018.11
2024-05-09T14:50:34.482Z,1018.11
2024-05-09T14:51:25.407Z,1018.10
2024-05-09T14:52:25.354Z,1018.13
2024-05-09T14:53:25.444Z,1018.15
2024-05-09T14:54:25.495Z,1018.15
2024-05-09T14:55:25.668Z,1018.12
2024-05-09T14:56:26.350Z,1018.08
2024-05-09T14:57:26.154Z,1018.13
2024-05-09T14:58:25.859Z,1018.14
2024-05-09T14:59:25.870Z,1018.12
2024-05-09T15:00:29.634Z,1018.07
2024-05-09T15:01:26.094Z,1018.03
2024-05-09T15:02:26.250Z,1018.10
2024-05-09T15:03:26.382Z,1018.05
2024-05-09T15:04:26.341Z,1018.04
2024-05-09T15:05:26.439Z,1018.03
2024-05-09T15:06:26.490Z,1017.99
2024-05-09T15:07:26.610Z,1018.01
2024-05-09T15:08:26.614Z,1018.01
2024-05-09T15:09:26.675Z,1017.97
2024-05-09T15:10:34.137Z,1017.98
2024-05-09T15:11:26.954Z,1017.93
2024-05-09T15:12:26.931Z,1017.94
2024-05-09T15:13:27.218Z,1017.95
2024-05-09T15:14:27.097Z,1017.99
2024-05-09T15:15:27.204Z,1017.98
2024-05-09T15:16:27.375Z,1017.96
2024-05-09T15:17:27.384Z,1017.91
2024-05-09T15:18:27.522Z,1017.88
2024-05-09T15:19:27.809Z,1017.90
2024-05-09T15:20:34.332Z,1017.86
2024-05-09T15:21:27.717Z,1017.87
2024-05-09T15:22:27.770Z,1017.88
2024-05-09T15:23:27.862Z,1017.84
2024-05-09T15:24:27.960Z,1017.82
2024-05-09T15:25:28.144Z,1017.83
2024-05-09T15:26:28.162Z,1017.81
2024-05-09T15:27:28.238Z,1017.80
2024-05-09T15:28:28.381Z,1017.82
2024-05-09T15:29:28.401Z,1017.85
2024-05-09T15:30:31.979Z,1017.84
2024-05-09T15:31:28.798Z,1017.85
2024-05-09T15:32:28.826Z,1017.79
2024-05-09T15:33:28.849Z,1017.79
2024-05-09T15:34:28.937Z,1017.78
2024-05-09T15:35:28.938Z,1017.78
2024-05-09T15:36:29.015Z,1017.83
2024-05-09T15:37:29.172Z,1017.78
2024-05-09T15:38:29.182Z,1017.78
2024-05-09T15:39:29.343Z,1017.79
2024-05-09T15:40:36.108Z,1017.75
2024-05-09T15:41:29.408Z,1017.76
2024-05-09T15:42:29.581Z,1017.75
2024-05-09T15:43:29.902Z,1017.75
2024-05-09T15:44:29.713Z,1017.72
2024-05-09T15:45:29.847Z,1017.71
2024-05-09T15:46:29.925Z,1017.72
2024-05-09T15:47:30.041Z,1017.67
2024-05-09T15:48:30.149Z,1017.66
2024-05-09T15:49:30.237Z,1017.67
2024-05-09T15:50:37.759Z,1017.70
2024-05-09T15:51:30.359Z,1017.71
2024-05-09T15:52:30.316Z,1017.71
2024-05-09T15:53:30.427Z,1017.68
2024-05-09T15:54:30.481Z,1017.70
2024-05-09T15:55:30.564Z,1017.68
2024-05-09T15:56:30.680Z,1017.72
2024-05-09T15:57:30.833Z,1017.70
2024-05-09T15:58:30.845Z,1017.66
2024-05-09T15:59:30.903Z,1017.70
2024-05-09T16:00:37.846Z,1017.68
2024-05-09T16:01:31.152Z,1017.65
2024-05-09T16:02:31.144Z,1017.65
2024-05-09T16:03:31.551Z,1017.68
2024-05-09T16:04:31.408Z,1017.67
2024-05-09T16:05:31.490Z,1017.55
2024-05-09T16:06:31.494Z,1017.57
2024-05-09T16:07:31.492Z,1017.56
2024-05-09T16:08:31.563Z,1017.56
2024-05-09T16:09:31.676Z,1017.59
2024-05-09T16:10:33.438Z,1017.52
2024-05-09T16:11:31.935Z,1017.52
2024-05-09T16:12:31.935Z,1017.53
2024-05-09T16:13:31.999Z,1017.53
2024-05-09T16:14:32.054Z,1017.50
2024-05-09T16:15:32.449Z,1017.52
2024-05-09T16:16:32.246Z,1017.49
2024-05-09T16:17:32.428Z,1017.47
2024-05-09T16:18:32.397Z,1017.45
2024-05-09T16:19:32.512Z,1017.44
2024-05-09T16:20:39.041Z,1017.50
2024-05-09T16:21:32.706Z,1017.48
2024-05-09T16:22:32.714Z,1017.44
2024-05-09T16:23:32.812Z,1017.46
2024-05-09T16:24:32.971Z,1017.40
2024-05-09T16:25:32.993Z,1017.45
2024-05-09T16:26:33.084Z,1017.44
2024-05-09T16:27:33.214Z,1017.46
2024-05-09T16:28:33.380Z,1017.46
2024-05-09T16:29:33.439Z,1017.47
2024-05-09T16:30:35.596Z,1017.49
2024-05-09T16:31:33.500Z,1017.49
2024-05-09T16:32:33.674Z,1017.45
2024-05-09T16:33:33.769Z,1017.49
2024-05-09T16:34:33.749Z,1017.47
2024-05-09T16:35:33.805Z,1017.48
2024-05-09T16:36:33.969Z,1017.45
2024-05-09T16:37:34.005Z,1017.45
2024-05-09T16:38:34.038Z,1017.45
2024-05-09T16:39:34.102Z,1017.45
2024-05-09T16:40:38.817Z,1017.44
2024-05-09T16:41:34.278Z,1017.42
2024-05-09T16:42:34.411Z,1017.42
2024-05-09T16:43:34.493Z,1017.41
2024-05-09T16:44:35.661Z,1017.45
2024-05-09T16:45:34.672Z,1017.42
2024-05-09T16:46:34.662Z,1017.40
2024-05-09T16:47:34.953Z,1017.40
2024-05-09T16:48:35.142Z,1017.45
2024-05-09T16:49:34.951Z,1017.43
2024-05-09T16:50:35.942Z,1017.41
2024-05-09T16:51:35.880Z,1017.39
2024-05-09T16:52:35.124Z,1017.42
2024-05-09T16:53:35.228Z,1017.41
2024-05-09T16:54:35.337Z,1017.38
2024-05-09T16:55:36.075Z,1017.39
